Time;durP1;ratioP1;P1;durP2;ratioP2;P2;SDS_P1;SDS_P2;PMS_P1;PMS_P2;Temp;Humidity;BMP_temperature;BMP_pressure;BME280_temperature;BME280_humidity;BME280_pressure;Samples;Min_cycle;Max_cycle;Signal;HPM_P1;HPM_P2
2021/10/01 00:01:14;;;;;;;11.38;8.13;;;;;;;22.60;58.81;101985.14;1760457;80;21603;-49
2021/10/01 00:03:41;;;;;;;10.50;7.12;;;;;;;22.60;58.72;101979.59;1761086;80;21073;-47
2021/10/01 00:06:07;;;;;;;10.78;7.28;;;;;;;22.60;58.61;101976.82;1765767;80;21031;-50
2021/10/01 00:08:33;;;;;;;10.45;7.40;;;;;;;22.58;58.56;101981.27;1752456;80;21004;-48
2021/10/01 00:10:59;;;;;;;10.35;7.00;;;;;;;22.57;58.51;101976.05;1758388;80;21303;-47
2021/10/01 00:13:26;;;;;;;8.33;6.70;;;;;;;22.55;58.48;101981.05;1753528;80;21080;-47
2021/10/01 00:15:52;;;;;;;10.70;7.00;;;;;;;22.52;58.44;101982.50;1760864;80;21028;-46
2021/10/01 00:18:22;;;;;;;9.58;7.35;;;;;;;22.50;58.42;101984.73;1757988;80;21692;-46
2021/10/01 00:20:48;;;;;;;10.32;7.12;;;;;;;22.47;58.41;101980.36;1765275;80;21453;-48
2021/10/01 00:23:14;;;;;;;10.48;7.40;;;;;;;22.44;58.39;101980.41;1769384;79;21168;-47
2021/10/01 00:25:40;;;;;;;11.73;7.55;;;;;;;22.42;58.40;101974.89;1749939;80;21019;-47
2021/10/01 00:28:06;;;;;;;10.20;7.28;;;;;;;22.39;58.42;101972.17;1756091;80;21013;-49
2021/10/01 00:30:33;;;;;;;9.55;7.12;;;;;;;22.36;58.44;101975.56;1763399;80;21911;-47
2021/10/01 00:32:59;;;;;;;10.55;7.25;;;;;;;22.33;58.45;101977.52;1715803;82;21058;-44
2021/10/01 00:35:25;;;;;;;10.20;7.65;;;;;;;22.31;58.46;101975.63;1711229;83;22119;-50
2021/10/01 00:37:51;;;;;;;10.63;6.97;;;;;;;22.28;58.49;101975.65;1713263;83;21050;-49
2021/10/01 00:40:18;;;;;;;9.85;7.17;;;;;;;22.26;58.49;101983.47;1717464;82;21381;-49
2021/10/01 00:42:44;;;;;;;9.55;7.50;;;;;;;22.23;58.53;101974.37;1714000;83;21057;-47
2021/10/01 00:45:10;;;;;;;10.03;7.58;;;;;;;22.21;58.53;101972.45;1753634;80;22215;-50
2021/10/01 00:47:36;;;;;;;9.60;6.78;;;;;;;22.22;58.55;101978.81;1719303;82;21280;-49
2021/10/01 00:50:03;;;;;;;9.45;6.60;;;;;;;22.24;58.61;101977.38;1752422;80;21006;-46
2021/10/01 00:52:29;;;;;;;9.05;6.75;;;;;;;22.26;58.72;101969.59;1752887;80;21020;-47
2021/10/01 00:54:55;;;;;;;9.00;6.50;;;;;;;22.29;58.82;101975.09;1742785;79;20922;-49
2021/10/01 00:57:21;;;;;;;8.70;6.60;;;;;;;22.30;58.87;101962.33;1754429;80;20884;-47
2021/10/01 00:59:47;;;;;;;9.73;7.40;;;;;;;22.33;58.85;101962.27;1749171;80;22147;-47
2021/10/01 01:02:13;;;;;;;9.25;7.20;;;;;;;22.36;58.80;101962.25;1747685;81;20863;-49
2021/10/01 01:04:41;;;;;;;10.15;7.53;;;;;;;22.38;58.72;101961.38;1752784;80;20962;-48
2021/10/01 01:07:17;;;;;;;10.03;6.95;;;;;;;22.36;58.65;101963.08;1740256;80;21045;-48
2021/10/01 01:10:06;;;;;;;8.68;6.90;;;;;;;22.37;58.57;101959.72;1712914;82;21080;-47
2021/10/01 01:12:53;;;;;;;11.00;7.80;;;;;;;22.35;58.52;101959.21;1748672;80;21044;-48
2021/10/01 01:15:27;;;;;;;11.80;7.12;;;;;;;22.32;58.46;101953.69;1692451;82;21012;-47
2021/10/01 01:18:12;;;;;;;10.15;7.33;;;;;;;22.29;58.43;101960.67;1758176;80;21617;-47
2021/10/01 01:20:48;;;;;;;8.30;6.67;;;;;;;22.27;58.38;101957.95;1762190;80;21597;-46
2021/10/01 01:24:02;;;;;;;9.75;6.95;;;;;;;22.24;58.37;101962.69;1751137;80;21741;-49
2021/10/01 01:27:14;;;;;;;10.05;7.03;;;;;;;22.21;58.34;101963.30;1736618;80;21139;-53
2021/10/01 01:30:13;;;;;;;10.05;7.17;;;;;;;22.17;58.35;101959.48;1751759;81;21054;-51
2021/10/01 01:32:41;;;;;;;9.73;7.42;;;;;;;22.13;58.35;101961.21;1751143;81;21030;-49
2021/10/01 01:35:20;;;;;;;9.28;6.95;;;;;;;22.10;58.37;101965.98;1729763;81;21055;-51
2021/10/01 01:37:56;;;;;;;9.00;6.90;;;;;;;22.07;58.36;101967.94;1748885;80;21817;-48
2021/10/01 01:40:26;;;;;;;12.15;7.42;;;;;;;22.05;58.37;101961.89;1720308;82;21932;-52
2021/10/01 01:42:54;;;;;;;11.15;7.30;;;;;;;22.01;58.41;101965.83;1752788;81;21010;-52
2021/10/01 01:45:20;;;;;;;9.70;7.08;;;;;;;21.99;58.42;101963.90;1736615;80;21033;-52
2021/10/01 01:47:47;;;;;;;7.58;6.75;;;;;;;21.98;58.42;101960.06;1720672;81;21882;-49
2021/10/01 01:50:13;;;;;;;10.03;7.03;;;;;;;21.95;58.46;101960.64;1741251;81;21031;-47
2021/10/01 01:52:41;;;;;;;9.63;6.78;;;;;;;21.94;58.47;101954.27;1788516;79;21439;-46
2021/10/01 01:55:08;;;;;;;9.15;6.30;;;;;;;21.92;58.48;101956.53;1734678;81;21021;-47
2021/10/01 01:57:34;;;;;;;8.58;6.17;;;;;;;21.94;58.50;101953.47;1769829;79;21006;-46
2021/10/01 02:00:00;;;;;;;8.68;6.05;;;;;;;21.97;58.58;101953.70;1785939;79;20886;-51
2021/10/01 02:02:26;;;;;;;7.35;5.50;;;;;;;22.01;58.67;101960.28;1709823;83;21058;-45
2021/10/01 02:04:52;;;;;;;9.10;6.37;;;;;;;22.04;58.75;101962.45;1777902;79;22115;-50
2021/10/01 02:07:19;;;;;;;10.28;6.75;;;;;;;22.07;58.78;101960.45;1780340;80;20890;-47
2021/10/01 02:09:45;;;;;;;8.58;7.00;;;;;;;22.10;58.75;101965.98;1726184;81;21065;-50
2021/10/01 02:12:12;;;;;;;10.13;6.17;;;;;;;22.13;58.67;101962.04;1785221;79;21013;-49
2021/10/01 02:14:41;;;;;;;8.15;6.45;;;;;;;22.14;58.59;101965.64;1793380;79;21056;-47
2021/10/01 02:17:07;;;;;;;9.20;6.75;;;;;;;22.15;58.48;101972.25;1779812;80;21057;-45
2021/10/01 02:19:33;;;;;;;8.00;6.00;;;;;;;22.16;58.40;101966.14;1740761;80;21044;-48
2021/10/01 02:22:01;;;;;;;9.95;6.65;;;;;;;22.14;58.32;101966.47;1783827;79;21045;-48
2021/10/01 02:24:31;;;;;;;8.30;6.45;;;;;;;22.14;58.26;101964.25;1737500;81;21012;-48
2021/10/01 02:27:16;;;;;;;10.08;6.78;;;;;;;22.12;58.20;101963.72;1768787;79;21072;-50
2021/10/01 02:30:12;;;;;;;10.72;6.90;;;;;;;22.11;58.16;101971.76;1725549;81;21444;-51
2021/10/01 02:32:52;;;;;;;9.28;6.25;;;;;;;22.08;58.12;101966.27;1726738;81;21053;-54
2021/10/01 02:35:18;;;;;;;9.90;6.87;;;;;;;22.05;58.06;101968.27;1745668;79;21059;-55
2021/10/01 02:37:44;;;;;;;9.05;6.65;;;;;;;22.02;58.06;101961.11;1779343;80;20878;-54
2021/10/01 02:40:11;;;;;;;7.53;5.95;;;;;;;21.99;58.07;101962.52;1779053;80;21485;-55
2021/10/01 02:42:37;;;;;;;9.78;6.85;;;;;;;21.98;58.05;101960.06;1781923;80;21146;-55
2021/10/01 02:45:05;;;;;;;10.68;6.72;;;;;;;21.94;58.05;101959.02;1781845;80;20954;-54
2021/10/01 02:47:33;;;;;;;9.60;6.78;;;;;;;21.92;58.06;101959.30;1773114;80;21071;-55
2021/10/01 02:50:01;;;;;;;9.45;6.45;;;;;;;21.90;58.07;101957.34;1762222;79;21082;-54
2021/10/01 02:52:57;;;;;;;8.95;6.20;;;;;;;21.88;58.06;101962.37;1771810;80;22171;-55
2021/10/01 02:55:41;;;;;;;9.23;6.03;;;;;;;21.86;58.06;101961.28;1761364;79;21576;-55
2021/10/01 02:58:24;;;;;;;8.10;6.65;;;;;;;21.84;58.07;101953.02;1764744;80;21067;-55
2021/10/01 03:00:50;;;;;;;8.08;6.33;;;;;;;21.82;58.09;101961.61;1744381;80;21346;-55
2021/10/01 03:03:24;;;;;;;7.97;6.22;;;;;;;21.79;58.12;101957.23;1757009;79;21044;-55
2021/10/01 03:05:52;;;;;;;8.63;6.85;;;;;;;21.77;58.11;101954.75;1765634;80;21100;-55
2021/10/01 03:08:18;;;;;;;7.58;6.37;;;;;;;21.78;58.12;101962.50;1765307;80;22030;-55
2021/10/01 03:10:46;;;;;;;8.08;5.90;;;;;;;21.77;58.12;101957.52;1760700;80;21138;-55
2021/10/01 03:13:15;;;;;;;7.10;5.50;;;;;;;21.77;58.15;101956.14;1752196;80;21086;-54
2021/10/01 03:15:41;;;;;;;6.05;5.03;;;;;;;21.79;58.17;101956.68;1751842;80;21106;-54
2021/10/01 03:18:07;;;;;;;6.50;5.12;;;;;;;21.84;58.17;101955.78;1752205;80;21383;-55
2021/10/01 03:20:33;;;;;;;7.67;5.30;;;;;;;21.90;58.25;101952.39;1758485;80;21267;-54
2021/10/01 03:22:59;;;;;;;6.40;4.92;;;;;;;21.96;58.34;101953.42;1756832;80;21607;-54
2021/10/01 03:25:25;;;;;;;6.55;5.03;;;;;;;22.04;58.43;101958.84;1754388;80;20984;-54
2021/10/01 03:27:52;;;;;;;6.58;4.60;;;;;;;22.10;58.49;101957.66;1718447;82;21081;-54
2021/10/01 03:30:18;;;;;;;6.08;5.10;;;;;;;22.15;58.48;101961.75;1713933;82;21157;-54
2021/10/01 03:32:46;;;;;;;7.17;4.90;;;;;;;22.20;58.42;101954.72;1712715;81;21318;-54
2021/10/01 03:35:13;;;;;;;6.12;4.85;;;;;;;22.24;58.32;101954.38;1708935;82;21089;-54
2021/10/01 03:37:39;;;;;;;7.03;5.20;;;;;;;;;;1716132;82;20997;-54
2021/10/01 03:40:11;;;;;;;7.42;4.92;;;;;;;22.31;58.13;101954.84;1711477;82;21621;-54
2021/10/01 03:42:38;;;;;;;7.08;4.87;;;;;;;22.34;58.03;101954.22;1715461;82;21054;-54
2021/10/01 03:45:08;;;;;;;6.62;4.97;;;;;;;22.36;57.95;101954.77;1712600;83;21029;-55
2021/10/01 03:47:34;;;;;;;5.90;4.70;;;;;;;22.37;57.87;101949.45;1758071;80;21067;-55
2021/10/01 03:50:00;;;;;;;7.45;5.08;;;;;;;22.37;57.82;101945.30;1718178;81;21058;-56
2021/10/01 03:52:26;;;;;;;5.62;4.58;;;;;;;22.39;57.75;101945.00;1719928;82;21115;-56
2021/10/01 03:54:53;;;;;;;5.30;4.15;;;;;;;22.40;57.70;101950.81;1722550;83;21011;-55
2021/10/01 03:57:19;;;;;;;5.85;4.25;;;;;;;22.40;57.66;101951.64;1747737;80;21184;-54
2021/10/01 03:59:46;;;;;;;4.22;3.27;;;;;;;22.40;57.62;101950.26;1746002;80;21565;-56
2021/10/01 04:02:12;;;;;;;4.47;3.42;;;;;;;22.42;57.58;101951.32;1750971;80;21186;-56
2021/10/01 04:04:38;;;;;;;4.70;3.65;;;;;;;22.42;57.54;101952.15;1751264;80;21608;-55
2021/10/01 04:07:04;;;;;;;4.37;3.00;;;;;;;22.42;57.48;101952.70;1759948;80;21063;-54
2021/10/01 04:09:30;;;;;;;4.40;3.05;;;;;;;22.44;57.45;101951.30;1719776;83;21559;-54
2021/10/01 04:11:57;;;;;;;3.35;2.77;;;;;;;22.44;57.41;101956.84;1725605;83;21088;-54
2021/10/01 04:14:24;;;;;;;4.92;3.30;;;;;;;22.45;57.39;101950.73;1722500;82;21569;-55
2021/10/01 04:16:51;;;;;;;3.62;3.05;;;;;;;22.46;57.34;101955.13;1719078;83;21096;-55
2021/10/01 04:19:17;;;;;;;3.50;2.50;;;;;;;22.47;57.32;101960.39;1752658;80;21054;-55
2021/10/01 04:21:44;;;;;;;3.33;2.83;;;;;;;22.48;57.31;101965.37;1717431;80;21160;-55
2021/10/01 04:24:10;;;;;;;4.42;3.40;;;;;;;22.48;57.28;101968.98;1713977;82;21572;-55
2021/10/01 04:26:37;;;;;;;3.92;3.05;;;;;;;22.48;57.26;101968.98;1746185;80;21055;-51
2021/10/01 04:29:03;;;;;;;4.72;3.22;;;;;;;22.49;57.25;101964.26;1755535;80;21898;-54
2021/10/01 04:31:29;;;;;;;3.90;3.12;;;;;;;22.50;57.24;101967.27;1755744;79;20892;-56
2021/10/01 04:33:56;;;;;;;4.20;3.22;;;;;;;22.53;57.22;101977.78;1753440;80;21172;-51
2021/10/01 04:36:22;;;;;;;6.62;3.10;;;;;;;22.52;57.23;101974.73;1750035;80;21540;-50
2021/10/01 04:38:49;;;;;;;5.80;3.50;;;;;;;22.53;57.22;101977.78;1754877;80;21053;-49
2021/10/01 04:41:15;;;;;;;11.53;6.35;;;;;;;22.53;57.24;101976.39;1747423;80;21077;-49
2021/10/01 04:43:41;;;;;;;10.45;4.37;;;;;;;22.58;57.26;101977.67;1742980;80;21075;-48
2021/10/01 04:46:08;;;;;;;8.73;5.17;;;;;;;22.64;57.34;101982.84;1746765;80;21565;-52
2021/10/01 04:48:34;;;;;;;22.52;11.95;;;;;;;22.70;57.43;101985.80;1754129;80;21063;-55
2021/10/01 04:51:00;;;;;;;17.12;7.65;;;;;;;22.75;57.54;101986.28;1764836;80;21942;-50
2021/10/01 04:53:26;;;;;;;59.35;17.82;;;;;;;22.80;57.62;101993.14;1768310;80;21367;-47
2021/10/01 04:55:52;;;;;;;106.27;33.80;;;;;;;22.84;57.65;101993.34;1764207;80;21011;-50
2021/10/01 04:58:18;;;;;;;25.10;7.40;;;;;;;22.87;57.64;101996.92;1769663;80;22025;-47
2021/10/01 05:00:44;;;;;;;23.60;6.45;;;;;;;22.89;57.59;101992.70;1760946;80;21058;-49
2021/10/01 05:03:11;;;;;;;42.75;14.07;;;;;;;22.92;57.53;101997.64;1765266;80;21002;-51
2021/10/01 05:05:37;;;;;;;40.23;14.07;;;;;;;22.95;57.49;101994.84;1763582;80;21070;-51
2021/10/01 05:08:04;;;;;;;14.63;6.75;;;;;;;22.97;57.47;101996.73;1765160;79;21067;-53
2021/10/01 05:10:30;;;;;;;27.70;9.60;;;;;;;22.98;57.44;101996.99;1763301;80;21152;-53
2021/10/01 05:12:56;;;;;;;7.60;4.92;;;;;;;22.98;57.41;101999.77;1760973;80;22356;-53
2021/10/01 05:15:23;;;;;;;4.72;3.45;;;;;;;22.99;57.39;102005.59;1720107;81;20921;-53
2021/10/01 05:17:51;;;;;;;13.48;5.75;;;;;;;22.98;57.34;102010.31;1732542;81;21083;-51
2021/10/01 05:20:17;;;;;;;49.70;15.35;;;;;;;22.97;57.34;102007.83;1724911;81;21495;-53
2021/10/01 05:22:43;;;;;;;80.38;26.82;;;;;;;22.97;57.31;102009.22;1721492;81;21924;-51
2021/10/01 05:25:09;;;;;;;127.17;41.37;;;;;;;22.96;57.34;102016.72;1720427;81;20851;-50
2021/10/01 05:27:35;;;;;;;89.67;30.60;;;;;;;22.95;57.32;102012.87;1727255;81;21490;-46
2021/10/01 05:30:03;;;;;;;73.60;21.95;;;;;;;22.94;57.33;102016.77;1769410;80;21042;-54
2021/10/01 05:32:29;;;;;;;12.60;5.65;;;;;;;22.93;57.36;102022.88;1767625;80;21572;-54
2021/10/01 05:34:55;;;;;;;6.53;3.92;;;;;;;22.91;57.39;102018.77;1716991;81;23082;-55
2021/10/01 05:37:21;;;;;;;5.30;4.03;;;;;;;22.90;57.40;102021.28;1721953;81;21052;-54
2021/10/01 05:39:47;;;;;;;7.33;4.72;;;;;;;22.90;57.40;102024.06;1762042;80;21516;-56
2021/10/01 05:42:13;;;;;;;26.20;11.65;;;;;;;22.86;57.43;102026.63;1764714;79;20903;-55
2021/10/01 05:44:39;;;;;;;9.43;5.28;;;;;;;22.86;57.45;102029.40;1768838;80;21023;-55
2021/10/01 05:47:07;;;;;;;9.55;4.42;;;;;;;22.85;57.47;102029.13;1769928;79;21071;-54
2021/10/01 05:49:43;;;;;;;5.37;4.00;;;;;;;22.86;57.51;102030.78;1731115;80;21052;-54
2021/10/01 05:52:14;;;;;;;9.78;3.87;;;;;;;22.90;57.59;102035.16;1715204;82;21065;-54
2021/10/01 05:54:29;;;;;;;6.80;3.65;;;;;;;22.93;57.71;102035.38;1713283;82;21153;-55
2021/10/01 05:56:56;;;;;;;9.15;4.17;;;;;;;22.94;57.78;102034.25;1712070;82;21464;-54
2021/10/01 05:59:22;;;;;;;8.38;4.20;;;;;;;22.95;57.83;102038.69;1748119;80;21302;-55
2021/10/01 06:01:49;;;;;;;13.55;4.35;;;;;;;22.98;57.82;102038.62;1755322;80;21149;-54
2021/10/01 06:04:15;;;;;;;10.18;3.92;;;;;;;22.97;57.78;102036.41;1762107;80;21522;-54
2021/10/01 06:06:41;;;;;;;9.15;4.00;;;;;;;22.98;57.73;102035.84;1721344;82;21075;-54
2021/10/01 06:09:11;;;;;;;10.30;4.33;;;;;;;22.98;57.66;102032.52;1714368;82;21068;-55
2021/10/01 06:11:37;;;;;;;8.80;4.00;;;;;;;22.98;57.60;102032.52;1725694;82;21550;-55
2021/10/01 06:14:06;;;;;;;7.78;4.28;;;;;;;22.98;57.56;102038.62;1712602;82;21069;-55
2021/10/01 06:16:33;;;;;;;8.28;4.08;;;;;;;22.96;57.54;102034.75;1718066;82;21001;-55
2021/10/01 06:18:59;;;;;;;6.30;4.40;;;;;;;22.94;57.49;102037.03;1753549;80;21506;-55
2021/10/01 06:21:25;;;;;;;8.18;4.40;;;;;;;22.93;57.47;102045.09;1756745;80;21083;-54
2021/10/01 06:23:51;;;;;;;8.40;3.80;;;;;;;22.92;57.46;102042.60;1756514;80;21847;-54
2021/10/01 06:26:17;;;;;;;7.22;3.80;;;;;;;22.90;57.43;102038.77;1755470;79;20857;-54
2021/10/01 06:28:44;;;;;;;5.62;3.80;;;;;;;22.88;57.42;102036.84;1748127;80;21784;-54
2021/10/01 06:31:09;;;;;;;9.65;4.30;;;;;;;22.86;57.41;102041.89;1749293;80;20915;-54
2021/10/01 06:33:35;;;;;;;6.72;3.90;;;;;;;22.85;57.39;102043.56;1751122;80;21679;-54
2021/10/01 06:36:02;;;;;;;10.65;4.00;;;;;;;22.83;57.38;102040.28;1754670;80;21311;-54
2021/10/01 06:38:30;;;;;;;11.78;3.90;;;;;;;22.81;57.39;102040.58;1714454;82;21595;-54
2021/10/01 06:40:57;;;;;;;5.33;3.83;;;;;;;22.79;57.37;102046.18;1714657;82;21523;-55
2021/10/01 06:43:25;;;;;;;7.20;3.42;;;;;;;22.76;57.38;102051.20;1680722;83;21117;-55
2021/10/01 06:45:54;;;;;;;6.85;3.58;;;;;;;22.75;57.38;102057.86;1717839;83;21064;-54
2021/10/01 08:20:48;;;;;;;6.08;3.25;;;;;;;22.31;57.13;102034.69;1765496;80;21105;-55
2021/10/01 08:23:14;;;;;;;4.70;2.70;;;;;;;22.31;57.14;102046.33;1775980;80;21924;-51
2021/10/01 08:25:40;;;;;;;3.60;2.80;;;;;;;22.29;57.13;102047.17;1777948;80;21088;-50
2021/10/01 08:28:06;;;;;;;3.75;2.55;;;;;;;22.26;57.17;102033.36;1774156;80;20902;-50
2021/10/01 08:30:32;;;;;;;4.03;2.50;;;;;;;22.27;57.18;102041.13;1775908;80;21545;-51
2021/10/01 08:32:58;;;;;;;5.78;3.05;;;;;;;22.25;57.19;102034.48;1777447;80;20993;-45
2021/10/01 08:35:24;;;;;;;4.75;3.17;;;;;;;22.24;57.19;102031.44;1774802;80;21236;-47
2021/10/01 08:37:55;;;;;;;4.65;2.95;;;;;;;22.23;57.20;102027.04;1769416;80;20951;-46
2021/10/01 08:40:22;;;;;;;5.03;2.77;;;;;;;22.23;57.20;102030.37;1778501;80;21381;-48
2021/10/01 08:42:50;;;;;;;4.58;2.72;;;;;;;22.22;57.22;102025.94;1772254;80;21023;-47
2021/10/01 08:45:17;;;;;;;4.87;2.45;;;;;;;22.21;57.24;102017.36;1743064;81;21052;-49
2021/10/01 08:47:43;;;;;;;3.00;2.67;;;;;;;22.21;57.23;102020.13;1725738;81;21179;-47
2021/10/01 08:50:12;;;;;;;3.92;2.55;;;;;;;22.20;57.22;102012.93;1782799;79;20978;-47
2021/10/01 08:52:38;;;;;;;4.33;2.75;;;;;;;22.19;57.23;102016.26;1779240;80;21091;-47
2021/10/01 08:55:06;;;;;;;4.05;2.75;;;;;;;22.18;57.20;102020.73;1781480;80;21593;-46
2021/10/01 08:57:32;;;;;;;3.67;2.70;;;;;;;22.18;57.20;102013.25;1727519;81;20988;-45
2021/10/01 08:59:59;;;;;;;6.67;2.60;;;;;;;22.18;57.20;102019.35;1747632;81;22092;-50
2021/10/01 09:02:26;;;;;;;4.22;3.20;;;;;;;22.17;57.21;102007.44;1717714;83;21558;-47
2021/10/01 09:04:58;;;;;;;3.20;2.42;;;;;;;22.15;57.20;102004.13;1720846;81;21060;-47
2021/10/01 09:07:25;;;;;;;3.52;2.22;;;;;;;22.16;57.20;102014.09;1702056;83;21049;-48
2021/10/01 09:09:52;;;;;;;3.83;2.60;;;;;;;22.14;57.20;102006.66;1705013;83;21803;-47
2021/10/01 09:12:19;;;;;;;4.10;2.47;;;;;;;22.14;57.19;102009.42;1721199;81;21300;-45
2021/10/01 09:14:53;;;;;;;3.77;2.47;;;;;;;22.13;57.20;102002.78;1686578;84;21045;-52
2021/10/01 09:17:22;;;;;;;3.33;2.50;;;;;;;22.13;57.18;102009.72;1729463;81;21042;-46
2021/10/01 09:19:48;;;;;;;3.42;2.77;;;;;;;22.12;57.18;102000.58;1725255;81;21512;-46
2021/10/01 09:22:36;;;;;;;3.12;2.22;;;;;;;22.13;57.15;102002.78;1734431;81;21059;-48
2021/10/01 09:25:22;;;;;;;3.72;2.60;;;;;;;22.12;57.16;101998.36;1745259;81;21139;-47
2021/10/01 09:27:55;;;;;;;5.67;2.70;;;;;;;22.12;57.15;101995.59;1744976;81;20937;-48
2021/10/01 09:30:22;;;;;;;3.08;2.20;;;;;;;22.10;57.15;101987.59;1726025;80;21414;-49
2021/10/01 09:33:10;;;;;;;3.95;2.50;;;;;;;22.10;57.14;101989.53;1779381;80;21073;-48
2021/10/01 09:35:37;;;;;;;3.45;2.40;;;;;;;22.09;57.13;101990.09;1754267;80;21151;-48
2021/10/01 09:38:13;;;;;;;5.10;2.60;;;;;;;22.09;57.11;101983.72;1786504;80;21291;-46
2021/10/01 09:40:40;;;;;;;3.70;2.55;;;;;;;22.08;57.10;101998.14;1724441;81;21108;-50
2021/10/01 09:43:06;;;;;;;3.20;2.33;;;;;;;22.10;57.10;101992.31;1721367;81;21484;-46
2021/10/01 09:45:33;;;;;;;3.85;2.70;;;;;;;22.08;57.08;101989.00;1729834;81;21041;-48
2021/10/01 09:48:05;;;;;;;4.92;2.67;;;;;;;22.10;57.06;101985.38;1734227;81;21034;-47
2021/10/01 09:50:31;;;;;;;3.65;2.30;;;;;;;22.08;57.06;101981.51;1782018;80;21222;-49
2021/10/01 09:53:02;;;;;;;3.83;2.67;;;;;;;22.09;57.05;101974.02;1726745;82;21030;-47
2021/10/01 09:55:31;;;;;;;4.75;2.45;;;;;;;22.10;57.04;101975.68;1711295;82;21085;-49
2021/10/01 09:58:10;;;;;;;4.60;3.27;;;;;;;22.08;57.04;101984.28;1718093;82;21021;-47
2021/10/01 10:00:49;;;;;;;4.35;2.40;;;;;;;22.09;57.03;101978.18;1688654;82;21521;-48
2021/10/01 10:03:31;;;;;;;3.77;2.22;;;;;;;22.09;56.99;101974.84;1712524;83;21582;-48
2021/10/01 10:06:04;;;;;;;2.77;2.30;;;;;;;22.10;56.98;101975.68;1715446;82;21048;-47
2021/10/01 10:08:37;;;;;;;3.92;2.58;;;;;;;22.10;56.96;101969.58;1711774;83;21023;-48
2021/10/01 10:11:07;;;;;;;3.60;2.50;;;;;;;22.10;56.92;101963.20;1710963;83;21006;-51
2021/10/01 10:13:44;;;;;;;3.52;2.50;;;;;;;22.11;56.91;101972.59;1712944;82;21147;-46
2021/10/01 10:16:16;;;;;;;2.65;2.20;;;;;;;22.12;56.87;101978.40;1711219;83;21288;-44
2021/10/01 10:18:42;;;;;;;2.67;2.22;;;;;;;22.12;56.86;101973.41;1718101;83;21198;-49
2021/10/01 10:21:09;;;;;;;3.47;2.40;;;;;;;22.12;56.82;101972.86;1708908;83;21018;-44
2021/10/01 10:23:35;;;;;;;4.42;2.60;;;;;;;22.13;56.80;101970.91;1748466;80;21098;-44
2021/10/01 10:26:01;;;;;;;3.25;2.27;;;;;;;22.14;56.79;101972.56;1754583;80;21041;-47
2021/10/01 10:28:27;;;;;;;3.12;2.33;;;;;;;22.15;56.74;101965.91;1767070;80;21811;-46
2021/10/01 10:30:55;;;;;;;2.87;2.27;;;;;;;22.17;56.71;101963.64;1759810;80;21058;-46
2021/10/01 10:33:43;;;;;;;3.00;2.02;;;;;;;22.18;56.70;101959.75;1724498;82;21050;-46
2021/10/01 10:36:29;;;;;;;3.27;2.05;;;;;;;22.18;56.70;101950.88;1719759;82;21009;-45
2021/10/01 10:38:57;;;;;;;2.92;2.42;;;;;;;22.17;56.65;101948.40;1719413;81;21129;-47
2021/10/01 10:41:28;;;;;;;3.00;2.10;;;;;;;22.18;56.63;101950.05;1763763;80;22131;-47
2021/10/01 10:43:55;;;;;;;3.52;2.05;;;;;;;22.19;56.61;101948.94;1720725;82;21512;-45
2021/10/01 10:46:42;;;;;;;2.47;2.08;;;;;;;22.20;56.61;101940.86;1722940;82;21118;-45
2021/10/01 10:49:22;;;;;;;2.77;1.95;;;;;;;22.21;56.59;101939.73;1724527;82;21095;-49
2021/10/01 10:52:18;;;;;;;2.60;1.90;;;;;;;22.22;56.56;101937.23;1717605;82;21076;-44
2021/10/01 10:54:52;;;;;;;2.75;2.00;;;;;;;22.22;56.53;101937.23;1726860;82;21129;-44
2021/10/01 10:57:28;;;;;;;3.85;2.10;;;;;;;22.22;56.51;101936.68;1693696;83;21041;-50
2021/10/01 11:00:02;;;;;;;2.80;1.92;;;;;;;22.22;56.48;101934.47;1730921;81;21042;-51
2021/10/01 11:02:44;;;;;;;3.52;2.55;;;;;;;22.23;56.49;101925.86;1725227;81;20998;-51
2021/10/01 11:05:26;;;;;;;3.00;2.25;;;;;;;22.23;56.48;101923.64;1734113;81;21083;-49
2021/10/01 11:08:03;;;;;;;3.40;2.22;;;;;;;22.24;56.47;101916.95;1726831;81;21074;-51
2021/10/01 11:10:44;;;;;;;2.87;2.20;;;;;;;22.24;56.45;101920.55;1724279;81;21429;-50
2021/10/01 11:13:24;;;;;;;2.80;1.92;;;;;;;22.23;56.44;101923.08;1733615;81;21028;-51
2021/10/01 11:16:18;;;;;;;4.72;2.40;;;;;;;22.23;56.44;101923.08;1730296;81;21039;-52
2021/10/01 11:18:49;;;;;;;2.77;2.35;;;;;;;22.23;56.45;101913.94;1722244;81;21096;-51
2021/10/01 11:21:34;;;;;;;3.95;2.40;;;;;;;22.23;56.43;101916.72;1730738;81;21083;-50
2021/10/01 11:24:08;;;;;;;2.62;2.12;;;;;;;22.23;56.41;101916.72;1732609;81;21003;-47
2021/10/01 11:26:49;;;;;;;3.15;2.30;;;;;;;22.22;56.41;101915.06;1718252;83;21090;-46
2021/10/01 11:29:31;;;;;;;3.15;2.12;;;;;;;22.23;56.40;101908.40;1688514;82;21524;-45
2021/10/01 11:32:07;;;;;;;2.83;2.15;;;;;;;22.21;56.39;101908.69;1710894;81;21009;-45
2021/10/01 11:34:46;;;;;;;3.12;2.10;;;;;;;22.22;56.41;101902.03;1731244;81;23296;-45
2021/10/01 11:37:29;;;;;;;3.17;2.15;;;;;;;22.22;56.37;101899.25;1715616;81;21008;-45
2021/10/01 11:40:11;;;;;;;3.08;2.12;;;;;;;22.23;56.37;101897.31;1723634;81;21454;-44
2021/10/01 11:42:40;;;;;;;3.42;2.22;;;;;;;22.24;56.36;101899.76;1725792;81;21497;-48
2021/10/01 11:45:15;;;;;;;2.60;2.25;;;;;;;22.25;56.36;101893.66;1732137;81;21084;-50
2021/10/01 11:47:59;;;;;;;2.75;2.00;;;;;;;22.25;56.35;101894.48;1681926;84;21499;-48
2021/10/01 11:50:44;;;;;;;2.30;1.72;;;;;;;22.26;56.33;101896.14;1677007;84;21064;-52
2021/10/01 11:53:24;;;;;;;3.08;2.15;;;;;;;22.26;56.32;101891.15;1724735;81;21013;-47
2021/10/01 11:55:55;;;;;;;3.55;2.15;;;;;;;22.25;56.32;101891.71;1781859;80;21556;-48
2021/10/01 11:58:23;;;;;;;3.20;2.17;;;;;;;22.24;56.31;101881.73;1744382;81;23339;-50
2021/10/01 12:00:51;;;;;;;2.87;2.17;;;;;;;22.24;56.30;101887.28;1782240;79;21272;-50
2021/10/01 12:03:18;;;;;;;4.08;3.12;;;;;;;22.25;56.29;101886.16;1780194;80;21048;-49
2021/10/01 12:05:53;;;;;;;2.98;2.00;;;;;;;22.25;56.27;101877.84;1778235;80;21045;-49
2021/10/01 12:08:22;;;;;;;3.17;1.90;;;;;;;22.25;56.27;101883.39;1777576;80;21078;-49
2021/10/01 12:10:51;;;;;;;2.75;2.00;;;;;;;22.27;56.25;101883.09;1780691;80;21033;-47
2021/10/01 12:13:25;;;;;;;3.40;2.20;;;;;;;22.27;56.23;101878.94;1743468;81;21157;-51
2021/10/01 12:16:00;;;;;;;2.27;1.90;;;;;;;22.27;56.22;101877.55;1782011;79;20983;-47
2021/10/01 12:18:36;;;;;;;2.50;2.00;;;;;;;22.28;56.19;101881.95;1785079;80;21047;-50
2021/10/01 12:21:11;;;;;;;2.20;1.85;;;;;;;22.28;56.16;101877.80;1781661;79;21046;-52
2021/10/01 12:23:45;;;;;;;3.17;2.30;;;;;;;22.27;56.15;101866.47;1733819;81;21100;-51
2021/10/01 12:26:33;;;;;;;2.52;1.90;;;;;;;22.27;56.14;101867.85;1783162;80;21887;-49
2021/10/01 12:29:19;;;;;;;2.60;2.15;;;;;;;;;;1744171;81;21215;-46
2021/10/01 12:31:58;;;;;;;3.02;2.10;;;;;;;22.28;56.08;101850.89;1780097;79;21056;-49
2021/10/01 12:34:28;;;;;;;2.27;1.95;;;;;;;22.30;56.04;101858.36;1789016;79;20988;-50
2021/10/01 12:37:03;;;;;;;2.45;1.90;;;;;;;22.30;56.01;101863.91;1787760;79;21046;-47
2021/10/01 12:39:33;;;;;;;2.58;2.08;;;;;;;22.31;55.99;101862.78;1786865;79;22075;-52
2021/10/01 12:42:06;;;;;;;2.83;1.82;;;;;;;22.32;55.96;101856.09;1782467;80;21796;-48
2021/10/01 12:44:37;;;;;;;2.50;1.87;;;;;;;22.34;55.93;101847.48;1784075;79;21059;-49
2021/10/01 12:47:16;;;;;;;2.98;1.90;;;;;;;22.33;55.90;101849.42;1741505;81;21065;-49
2021/10/01 12:50:04;;;;;;;2.40;2.00;;;;;;;22.35;55.88;101847.75;1783558;78;21074;-53
2021/10/01 12:52:31;;;;;;;1.92;1.60;;;;;;;22.36;55.84;101844.41;1772008;80;21865;-52
2021/10/01 12:55:00;;;;;;;2.72;1.92;;;;;;;22.36;55.81;101839.70;1765614;80;21485;-52
2021/10/01 12:57:37;;;;;;;2.50;1.77;;;;;;;22.37;55.80;101839.11;1765588;80;21016;-49
2021/10/01 13:00:12;;;;;;;2.50;2.10;;;;;;;22.37;55.77;101834.39;1765759;80;21063;-53
2021/10/01 13:02:45;;;;;;;4.33;1.92;;;;;;;22.39;55.74;101832.70;1762486;80;21071;-53
2021/10/01 13:05:23;;;;;;;2.72;2.08;;;;;;;22.39;55.72;101837.69;1761087;80;21084;-53
2021/10/01 13:08:11;;;;;;;2.42;1.95;;;;;;;22.41;55.69;101835.42;1760233;80;21084;-54
2021/10/01 13:10:57;;;;;;;3.47;1.90;;;;;;;22.42;55.68;101836.25;1766742;80;21059;-54
2021/10/01 13:13:16;;;;;;;2.60;2.00;;;;;;;22.43;55.67;101829.58;1758382;80;21085;-54